الصفحة الرئيسية
METAR-TAF:

METAR-TAF

مطار :

شايان, وايومنغ, الولايات المتحدة

دائرة عرض: 41-09-28N, خط طول: 104-48-25W, ارتفاع: 1876 متر

مراقبة الطقس الحالي

تاريخ ووقت الإصدار 38 دقيقة قبل الساعة 14:53UTC
ريح 6 عقدة من الجنوب الغربي
درجة الحرارة -4°درجة مئوية
الرطوبة 58%
ضغط 1025 hPa
الرؤية: 16.1 كم
سماء صافية

METAR: KCYS 141453Z 22006KT 10SM CLR M04/M11 A3026 RMK AO2 SLP292 T10441106 51007

زمن: 08:31 (15:31 UTC)

توقعات

تاريخ ووقت الإصدار 3ساعات و 58 دقيقة قبل الساعة 11:33UTC
التوقعات صالحة من14 الساعة 12 UTC إلى 15 الساعة 12 UTC
ريح 11 عقدة من الغرب/الشمال الغربي
الرؤية: 10 كم
سماء صافية
من 14 الساعة 1500 UTC
ريح 15 عقدة من الغرب
الرؤية: 10 كم
سماء صافية
من 15 الساعة 0000 UTC
ريح 14 عقدة من الجنوب الغربي
الرؤية: 10 كم
غيوم متفرقة على ارتفاع 25000 قدم
من 15 الساعة 1100 UTC
ريح 12 عقدة من الغرب
الرؤية: 10 كم
غيوم قليلة على ارتفاع 25000 قدم

TAF: KCYS 141133Z 1412/1512 30011KT P6SM SKC FM141500 27015KT P6SM SKC FM150000 23014KT P6SM SCT250 FM151100 27012KT P6SM FEW250

أرصاد الطقس والتوقعات من أكثر من 4000 مطار (تقارير الطقس للمطار METAR والتنبؤ بالطقس بالمطارTAF).

المحطات المتاحة هي النقط الصفراء والحمراء على الخريطة.

حرك المؤشر فوق النقطة لمعرفة اسم المحطة.

ثم انقر لمعرفة أرصاد وتوقعات الطقس.

لتغيير الخارطة: اضغط على الأزرار الخضراء مع رمز الصليب الأسود للتكبير. على الزر الأخضر مع شرطة للتصغير، أو على الأسهم الخضراء للخرائط المجاورة.


METAR-TAF: